Time;durP1;ratioP1;P1;durP2;ratioP2;P2;SDS_P1;SDS_P2;PMS_P1;PMS_P2;Temp;Humidity;BMP_temperature;BMP_pressure;BME280_temperature;BME280_humidity;BME280_pressure;Samples;Min_cycle;Max_cycle;Signal;HPM_P1;HPM_P2
2022/12/28 00:02:25;;;;;;;4.40;1.60;;;;;;;18.69;39.54;101557.41;5001245;28;20026;-68
2022/12/28 00:04:50;;;;;;;3.50;1.25;;;;;;;18.68;39.43;101555.75;4999983;28;20279;-68
2022/12/28 00:07:15;;;;;;;2.90;1.30;;;;;;;18.66;39.22;101558.50;4999528;28;20112;-69
2022/12/28 00:09:41;;;;;;;3.45;1.48;;;;;;;18.63;39.25;101548.16;4984857;28;20036;-68
2022/12/28 00:12:06;;;;;;;3.80;1.40;;;;;;;18.63;39.30;101544.69;4992999;28;20030;-68
2022/12/28 00:14:32;;;;;;;3.75;1.38;;;;;;;18.61;39.14;101531.59;4995913;28;20497;-69
2022/12/28 00:16:57;;;;;;;5.22;1.45;;;;;;;18.60;39.01;101529.06;4983019;28;20034;-69
2022/12/28 00:19:22;;;;;;;5.30;1.35;;;;;;;18.62;39.18;101516.59;4981697;28;20073;-71
2022/12/28 00:21:47;;;;;;;4.97;1.50;;;;;;;18.60;39.41;101507.94;5000032;28;20470;-69
2022/12/28 00:24:21;;;;;;;3.28;1.25;;;;;;;18.56;39.41;101495.91;4993929;28;20035;-68
2022/12/28 00:26:47;;;;;;;4.35;1.60;;;;;;;18.59;39.53;101488.59;4981284;28;20388;-70
2022/12/28 00:29:12;;;;;;;4.18;1.55;;;;;;;18.58;39.07;101464.97;4996230;28;20164;-67
2022/12/28 00:31:38;;;;;;;4.90;1.40;;;;;;;18.55;39.15;101460.78;5000794;28;20030;-68
2022/12/28 00:34:03;;;;;;;4.63;1.58;;;;;;;18.54;39.43;101482.84;4999843;28;20061;-68
2022/12/28 00:36:29;;;;;;;3.08;1.30;;;;;;;18.52;39.61;101473.31;4988889;28;20088;-69
2022/12/28 00:38:55;;;;;;;5.45;1.65;;;;;;;18.51;39.19;101464.56;4981633;28;20482;-67
2022/12/28 00:41:20;;;;;;;3.85;1.30;;;;;;;18.53;39.22;101461.81;4986699;28;20026;-67
2022/12/28 00:43:45;;;;;;;4.60;1.40;;;;;;;18.53;39.19;101475.03;4984845;28;20053;-68
2022/12/28 00:46:11;;;;;;;4.22;1.40;;;;;;;18.54;38.94;101463.53;4981267;28;20030;-68
2022/12/28 00:48:36;;;;;;;2.70;1.30;;;;;;;18.53;39.21;101459.19;4993543;28;20049;-67
2022/12/28 00:51:05;;;;;;;4.40;1.30;;;;;;;18.52;39.18;101458.34;4994047;28;20037;-68
2022/12/28 00:53:30;;;;;;;4.20;1.50;;;;;;;18.48;39.28;101447.19;4985923;28;20140;-70
2022/12/28 00:56:09;;;;;;;3.80;1.30;;;;;;;18.48;39.38;101444.56;4996926;28;20470;-68
2022/12/28 00:58:35;;;;;;;3.30;1.45;;;;;;;18.49;39.46;101435.66;4988174;28;20034;-69
2022/12/28 01:01:01;;;;;;;4.30;1.50;;;;;;;18.48;39.62;101439.28;4981169;28;20061;-67
2022/12/28 01:03:26;;;;;;;3.28;1.30;;;;;;;18.46;39.22;101427.97;4981287;28;20039;-69
2022/12/28 01:05:52;;;;;;;3.15;1.27;;;;;;;18.44;39.35;101427.25;4988302;28;20033;-67
2022/12/28 01:08:17;;;;;;;3.20;1.17;;;;;;;18.43;39.34;101414.97;5001102;28;20025;-69
2022/12/28 01:10:42;;;;;;;4.78;1.50;;;;;;;18.45;39.43;101426.28;5003839;28;20826;-69
2022/12/28 01:13:07;;;;;;;3.42;1.67;;;;;;;18.42;39.38;101421.25;5003740;28;20041;-68
2022/12/28 01:15:33;;;;;;;2.30;1.08;;;;;;;18.41;39.41;101422.19;4994330;28;20390;-68
2022/12/28 01:17:58;;;;;;;2.85;1.40;;;;;;;18.42;38.96;101412.47;4991574;28;20030;-67
2022/12/28 01:20:23;;;;;;;3.00;1.40;;;;;;;18.42;39.22;101409.81;4992590;28;20398;-68
2022/12/28 01:22:48;;;;;;;3.88;1.33;;;;;;;18.40;39.49;101402.00;4987934;28;20030;-69
2022/12/28 01:25:14;;;;;;;3.25;1.30;;;;;;;18.40;39.37;101401.19;5002115;28;20029;-67
2022/12/28 01:27:39;;;;;;;3.90;1.23;;;;;;;18.40;39.32;101395.91;4995888;28;20049;-69
2022/12/28 01:30:05;;;;;;;3.03;1.40;;;;;;;18.38;39.08;101398.66;4990224;28;20030;-69
2022/12/28 01:32:30;;;;;;;3.00;1.42;;;;;;;18.34;39.39;101376.09;4993496;28;20565;-67
2022/12/28 01:34:56;;;;;;;2.88;1.13;;;;;;;18.37;39.38;101381.13;4983898;28;20060;-68
2022/12/28 01:37:21;;;;;;;5.13;1.70;;;;;;;18.37;39.25;101389.03;4989565;28;20038;-68
2022/12/28 01:39:46;;;;;;;3.92;1.65;;;;;;;18.37;39.19;101385.56;4991824;28;20038;-70
2022/12/28 01:42:18;;;;;;;2.90;1.20;;;;;;;18.33;39.39;101384.13;4982831;28;20237;-68
2022/12/28 01:44:48;;;;;;;3.13;1.30;;;;;;;18.29;39.02;101371.16;5001554;28;20060;-68
2022/12/28 01:47:24;;;;;;;3.67;1.30;;;;;;;18.31;39.58;101373.69;4992112;28;20065;-67
2022/12/28 01:49:58;;;;;;;3.17;1.33;;;;;;;18.29;39.26;101360.63;4986175;28;20088;-67
2022/12/28 01:52:30;;;;;;;3.78;1.17;;;;;;;18.31;39.35;101374.53;5002211;28;20120;-68
2022/12/28 01:54:55;;;;;;;3.25;1.30;;;;;;;18.34;39.52;101362.03;4997716;28;20096;-67
2022/12/28 01:57:26;;;;;;;2.87;1.10;;;;;;;18.30;39.17;101351.72;4988716;28;20038;-69
2022/12/28 02:00:05;;;;;;;3.20;1.35;;;;;;;18.31;39.21;101342.03;4986555;28;20113;-67
2022/12/28 02:02:31;;;;;;;4.13;1.30;;;;;;;18.28;39.28;101332.53;4987428;28;20036;-68
2022/12/28 02:04:58;;;;;;;3.10;1.40;;;;;;;18.29;39.27;101336.88;5003038;28;20121;-67
2022/12/28 02:07:35;;;;;;;2.35;1.02;;;;;;;18.23;39.55;101323.25;4999901;28;20037;-68
2022/12/28 02:10:01;;;;;;;2.92;1.17;;;;;;;18.26;39.28;101317.75;4994911;28;20080;-68
2022/12/28 02:12:27;;;;;;;3.67;1.30;;;;;;;18.28;39.65;101323.78;4988148;28;20043;-69
2022/12/28 02:14:52;;;;;;;3.80;1.15;;;;;;;18.25;39.50;101316.09;4984842;28;20034;-68
2022/12/28 02:17:18;;;;;;;3.83;1.30;;;;;;;18.27;39.49;101298.34;4999705;28;20433;-68
2022/12/28 02:19:46;;;;;;;3.17;1.23;;;;;;;18.21;39.40;101291.72;4995134;28;20038;-69
2022/12/28 02:22:20;;;;;;;2.42;1.15;;;;;;;18.21;39.59;101297.00;4993876;28;20069;-68
2022/12/28 02:25:07;;;;;;;3.00;1.25;;;;;;;18.23;39.48;101281.06;4996518;28;20120;-67
2022/12/28 02:27:55;;;;;;;4.07;1.38;;;;;;;18.22;39.32;101292.56;4989411;28;20034;-69
2022/12/28 02:30:21;;;;;;;3.20;1.20;;;;;;;18.19;39.42;101272.53;4995918;28;20026;-67
2022/12/28 02:33:21;;;;;;;2.42;1.20;;;;;;;18.22;39.65;101263.56;4994611;28;20038;-69
2022/12/28 02:35:55;;;;;;;4.32;1.50;;;;;;;18.21;39.38;101262.69;4996966;28;20086;-67
2022/12/28 02:38:38;;;;;;;3.60;1.30;;;;;;;18.19;39.46;101259.34;4986886;28;20035;-67
2022/12/28 02:41:16;;;;;;;2.63;1.13;;;;;;;18.18;39.60;101259.44;4995734;28;20088;-68
2022/12/28 02:43:42;;;;;;;3.33;1.38;;;;;;;18.20;39.80;101253.13;4988937;28;20045;-68
2022/12/28 02:51:54;;;;;;;3.00;1.20;;;;;;;18.18;39.76;101248.91;4995881;28;20433;-65
2022/12/28 02:57:28;;;;;;;3.92;1.23;;;;;;;18.17;39.95;101242.78;4998687;28;20061;-67
2022/12/28 03:00:01;;;;;;;3.30;1.05;;;;;;;18.17;39.71;101237.53;5000832;28;20124;-66
2022/12/28 03:02:33;;;;;;;3.35;1.27;;;;;;;18.15;40.12;101228.03;4990696;28;20473;-66
2022/12/28 03:05:10;;;;;;;2.78;1.17;;;;;;;18.15;39.91;101225.38;4989819;28;20045;-70
2022/12/28 03:08:18;;;;;;;2.85;1.10;;;;;;;18.13;40.13;101220.22;4989279;28;20022;-66
2022/12/28 03:11:04;;;;;;;3.30;1.20;;;;;;;18.13;40.00;101230.78;4985529;28;20104;-64
2022/12/28 03:13:43;;;;;;;2.55;1.23;;;;;;;18.12;40.05;101232.59;4993710;28;20039;-67
2022/12/28 03:25:41;;;;;;;3.10;1.10;;;;;;;18.13;40.07;101228.16;5001723;28;20034;-67
2022/12/28 03:33:05;;;;;;;2.70;1.10;;;;;;;18.10;40.21;101213.41;4986072;28;20552;-69
2022/12/28 03:35:47;;;;;;;3.90;1.27;;;;;;;18.05;40.39;101202.34;4983217;28;20062;-67
2022/12/28 03:38:47;;;;;;;2.55;1.05;;;;;;;18.06;40.24;101197.94;5001431;28;20038;-69
2022/12/28 03:41:29;;;;;;;3.38;1.10;;;;;;;18.06;40.35;101197.94;4983881;28;20053;-67
2022/12/28 03:44:02;;;;;;;3.15;1.33;;;;;;;18.03;40.61;101195.53;4982114;28;20096;-66
2022/12/28 03:46:46;;;;;;;3.20;1.20;;;;;;;18.06;40.44;101209.31;4986189;28;20040;-67
2022/12/28 03:49:12;;;;;;;2.78;1.20;;;;;;;18.03;40.73;101195.53;4990952;28;20889;-66
2022/12/28 03:51:38;;;;;;;3.47;1.38;;;;;;;18.02;40.44;101181.47;4999199;28;20049;-67
2022/12/28 03:54:04;;;;;;;3.45;1.30;;;;;;;18.04;40.50;101186.63;4986283;28;20044;-67
2022/12/28 03:56:29;;;;;;;3.53;1.40;;;;;;;18.05;40.50;101183.88;4987778;28;20031;-67
2022/12/28 03:58:56;;;;;;;2.78;1.20;;;;;;;18.02;40.85;101178.84;4982013;28;20034;-67
2022/12/28 04:01:21;;;;;;;3.28;1.30;;;;;;;18.05;40.65;101181.25;4990204;28;20029;-67
2022/12/28 04:03:46;;;;;;;3.55;1.13;;;;;;;17.99;40.84;101172.97;4991732;28;20052;-67
2022/12/28 04:06:15;;;;;;;2.75;1.20;;;;;;;18.00;40.74;101169.38;4996414;28;20040;-67
2022/12/28 04:08:41;;;;;;;3.17;1.27;;;;;;;18.00;40.70;101164.94;4989249;28;20439;-68
2022/12/28 04:11:06;;;;;;;3.03;1.10;;;;;;;17.96;40.63;101163.50;4994093;28;20121;-67
2022/12/28 04:13:32;;;;;;;2.97;1.10;;;;;;;17.99;40.71;101173.81;4988679;28;20586;-68
2022/12/28 04:16:12;;;;;;;3.33;1.13;;;;;;;18.00;41.10;101172.84;4986874;28;20045;-68
2022/12/28 04:18:37;;;;;;;2.72;1.10;;;;;;;17.98;41.10;101160.75;4983092;28;20038;-67
2022/12/28 04:21:03;;;;;;;3.22;1.20;;;;;;;17.98;41.08;101164.22;4990066;28;20057;-67
2022/12/28 04:23:29;;;;;;;3.10;1.20;;;;;;;17.99;41.06;101168.53;5001357;28;20030;-68
2022/12/28 04:26:01;;;;;;;1.50;0.90;;;;;;;18.00;40.98;101170.19;4998443;28;20471;-68
2022/12/28 04:28:27;;;;;;;3.17;1.13;;;;;;;17.97;41.12;101161.69;4995484;28;20042;-66
2022/12/28 04:30:52;;;;;;;2.83;1.40;;;;;;;17.97;41.26;101169.59;4983153;28;20092;-67
2022/12/28 04:33:18;;;;;;;3.30;1.30;;;;;;;17.98;41.06;101173.94;4981858;28;20038;-67
2022/12/28 04:35:43;;;;;;;2.15;0.90;;;;;;;17.97;41.31;101156.41;4990026;28;20054;-66
2022/12/28 04:38:08;;;;;;;3.58;1.30;;;;;;;17.98;41.27;101174.75;4988737;28;20038;-67
2022/12/28 04:40:34;;;;;;;2.57;1.10;;;;;;;17.98;40.96;101163.38;4985817;28;20076;-68
2022/12/28 04:42:59;;;;;;;3.28;1.45;;;;;;;17.97;41.26;101161.69;4985428;28;20319;-69
2022/12/28 04:45:24;;;;;;;3.30;1.02;;;;;;;17.97;41.33;101159.88;4987919;28;20034;-68
2022/12/28 04:47:49;;;;;;;2.72;1.00;;;;;;;17.96;41.32;101166.13;4993610;28;20038;-66
2022/12/28 04:50:15;;;;;;;3.65;1.23;;;;;;;17.98;41.36;101158.94;4988965;28;20033;-67
2022/12/28 04:52:40;;;;;;;3.10;1.20;;;;;;;17.95;41.08;101165.28;5001484;28;20133;-68
2022/12/28 04:55:06;;;;;;;4.03;1.20;;;;;;;17.97;41.18;101170.44;4989234;28;20038;-67
2022/12/28 04:57:31;;;;;;;3.13;0.90;;;;;;;17.97;41.32;101166.97;4998193;28;20427;-68
2022/12/28 04:59:56;;;;;;;3.03;1.05;;;;;;;17.96;41.55;101155.59;5000859;28;20910;-67
2022/12/28 05:02:21;;;;;;;2.10;1.00;;;;;;;17.95;41.73;101153.91;4999588;28;20038;-68
2022/12/28 05:04:47;;;;;;;2.75;1.10;;;;;;;17.93;41.53;101159.28;4997854;28;20847;-67
2022/12/28 05:07:12;;;;;;;2.92;1.00;;;;;;;17.95;41.54;101151.25;4990444;28;20084;-67
2022/12/28 05:09:37;;;;;;;2.47;1.00;;;;;;;17.96;41.71;101155.59;5002252;28;20064;-68
2022/12/28 05:12:03;;;;;;;2.30;1.00;;;;;;;17.95;41.66;101156.53;4990116;28;20267;-68
2022/12/28 05:14:28;;;;;;;2.95;1.20;;;;;;;17.91;41.42;101148.03;4994859;28;20259;-68
2022/12/28 05:16:53;;;;;;;2.30;1.05;;;;;;;17.92;41.46;101144.41;5003005;28;20129;-68
2022/12/28 05:19:19;;;;;;;2.42;1.00;;;;;;;17.95;41.94;101162.63;4993067;28;20095;-67
2022/12/28 05:21:44;;;;;;;2.80;1.02;;;;;;;17.94;41.60;101150.44;4998570;28;20034;-68
2022/12/28 05:24:09;;;;;;;3.65;1.15;;;;;;;17.92;41.74;101146.22;4996753;28;20463;-66
2022/12/28 05:26:34;;;;;;;3.85;1.17;;;;;;;17.92;41.72;101146.22;4999219;28;20039;-68
2022/12/28 05:29:00;;;;;;;2.28;1.02;;;;;;;17.90;41.70;101146.34;4987866;28;20463;-67
2022/12/28 05:31:26;;;;;;;3.45;1.02;;;;;;;17.92;41.81;101149.69;4994565;28;20030;-68
2022/12/28 05:33:52;;;;;;;3.08;1.00;;;;;;;17.90;41.80;101137.59;5001066;28;20524;-67
2022/12/28 05:36:20;;;;;;;2.42;1.00;;;;;;;17.88;42.06;101131.56;4991597;28;20108;-68
2022/12/28 05:38:46;;;;;;;2.25;0.90;;;;;;;17.89;42.03;101139.38;4991496;28;20045;-66
2022/12/28 05:41:14;;;;;;;1.75;0.80;;;;;;;17.92;41.83;101147.03;4984026;28;20030;-68
2022/12/28 05:43:40;;;;;;;1.40;0.73;;;;;;;17.92;42.12;101143.59;4996462;28;20037;-68
2022/12/28 05:46:11;;;;;;;1.92;0.88;;;;;;;17.89;41.96;101139.38;5003381;28;20044;-69
2022/12/28 05:48:38;;;;;;;2.70;0.82;;;;;;;17.97;41.96;101151.16;4994555;28;20074;-69
2022/12/28 05:51:07;;;;;;;2.03;0.77;;;;;;;17.95;42.14;101143.34;4984121;28;20153;-68
2022/12/28 05:53:33;;;;;;;3.30;0.90;;;;;;;17.99;41.77;101142.16;4999975;28;20491;-68
2022/12/28 05:56:04;;;;;;;2.50;1.00;;;;;;;18.04;42.10;101145.28;4996850;28;20895;-68
2022/12/28 05:58:30;;;;;;;2.60;0.90;;;;;;;18.09;41.96;101142.31;5000063;28;20254;-69
2022/12/28 06:01:07;;;;;;;1.70;0.75;;;;;;;18.11;42.13;101138.56;5003222;28;20716;-67
2022/12/28 06:03:33;;;;;;;2.72;0.90;;;;;;;18.13;41.88;101134.03;5003157;28;20038;-68
2022/12/28 06:06:06;;;;;;;2.28;0.70;;;;;;;18.17;42.21;101134.66;5003157;28;20037;-69
2022/12/28 06:08:32;;;;;;;1.25;0.50;;;;;;;18.19;42.11;101123.97;5002934;28;20033;-69
2022/12/28 06:11:02;;;;;;;1.50;0.63;;;;;;;18.18;42.20;101119.66;4998197;28;20655;-69
2022/12/28 06:13:28;;;;;;;2.80;0.88;;;;;;;18.22;42.34;101113.19;4989360;28;20038;-68
2022/12/28 06:15:54;;;;;;;1.48;0.68;;;;;;;18.23;42.23;101115.72;4991022;28;20478;-68
2022/12/28 06:18:19;;;;;;;2.15;0.80;;;;;;;18.26;42.14;101109.34;4985139;28;20052;-68
2022/12/28 06:20:45;;;;;;;0.90;0.60;;;;;;;18.29;41.93;101107.31;4983465;28;20113;-68
2022/12/28 06:23:10;;;;;;;3.08;0.70;;;;;;;18.30;42.18;101103.69;4998706;28;20425;-68
2022/12/28 06:25:37;;;;;;;2.50;0.83;;;;;;;18.34;42.13;101096.41;5002669;28;20038;-70
2022/12/28 06:28:02;;;;;;;1.77;0.70;;;;;;;18.31;41.87;101092.19;4998489;28;20793;-68
2022/12/28 06:30:28;;;;;;;1.98;0.70;;;;;;;18.37;41.86;101090.03;5002916;28;20038;-69
2022/12/28 06:32:55;;;;;;;2.03;0.60;;;;;;;18.36;41.94;101090.97;4985755;28;20042;-67
2022/12/28 06:35:21;;;;;;;2.20;0.73;;;;;;;18.36;42.03;101085.72;4997553;28;20058;-67
2022/12/28 06:37:47;;;;;;;1.85;0.80;;;;;;;18.35;41.90;101082.25;4983250;28;20036;-68
2022/12/28 06:40:13;;;;;;;1.23;0.60;;;;;;;18.41;41.90;101075.66;4999728;28;20061;-68
2022/12/28 06:42:38;;;;;;;1.00;0.55;;;;;;;18.40;41.98;101073.97;4999816;28;20116;-68
2022/12/28 06:45:04;;;;;;;1.70;0.70;;;;;;;18.39;41.89;101073.13;5000327;28;20034;-68
2022/12/28 06:47:29;;;;;;;1.85;0.70;;;;;;;18.42;42.58;101066.75;4995381;28;20030;-67
2022/12/28 06:49:54;;;;;;;1.37;0.70;;;;;;;18.45;42.37;101066.53;4982849;28;20042;-68
2022/12/28 06:52:20;;;;;;;1.40;0.70;;;;;;;18.42;42.29;101064.97;4982715;28;20330;-68
2022/12/28 06:54:45;;;;;;;1.52;0.70;;;;;;;18.49;42.14;101065.31;4982754;28;20455;-66
2022/12/28 06:57:10;;;;;;;1.43;0.57;;;;;;;18.49;42.22;101074.06;4982385;28;20033;-67
2022/12/28 06:59:36;;;;;;;2.00;0.60;;;;;;;18.53;42.37;101058.00;4985617;28;20601;-69
2022/12/28 07:02:01;;;;;;;2.13;0.70;;;;;;;18.57;42.28;101070.00;4982436;28;20284;-67
2022/12/28 07:04:26;;;;;;;2.93;0.80;;;;;;;18.51;42.19;101058.13;4981701;28;20030;-68
2022/12/28 07:06:51;;;;;;;1.07;0.60;;;;;;;18.58;42.15;101064.59;4986741;28;20270;-68
2022/12/28 07:09:17;;;;;;;1.55;0.65;;;;;;;18.61;42.02;101063.50;4984316;28;20331;-68
2022/12/28 07:11:43;;;;;;;2.25;0.70;;;;;;;18.61;42.14;101060.84;4988001;28;20042;-67
2022/12/28 07:14:08;;;;;;;2.15;0.80;;;;;;;18.56;42.02;101052.47;4988476;28;20030;-69
2022/12/28 07:16:33;;;;;;;1.98;0.80;;;;;;;18.60;42.16;101057.38;5000029;28;20040;-68
2022/12/28 07:18:59;;;;;;;1.65;0.60;;;;;;;18.61;42.15;101056.44;4981073;28;20120;-70
2022/12/28 07:21:30;;;;;;;1.90;0.77;;;;;;;18.60;42.23;101057.38;4991092;28;20034;-68
2022/12/28 07:23:56;;;;;;;2.10;0.60;;;;;;;18.62;42.11;101059.91;4997673;28;20038;-67
2022/12/28 07:26:24;;;;;;;1.17;0.60;;;;;;;18.60;42.48;101048.63;4982141;28;20027;-66
2022/12/28 07:28:52;;;;;;;1.67;0.60;;;;;;;18.62;42.18;101059.91;4981893;28;20026;-69
2022/12/28 07:31:24;;;;;;;2.10;0.63;;;;;;;18.59;42.10;101060.16;4982341;28;20119;-67
2022/12/28 07:33:52;;;;;;;2.13;0.80;;;;;;;18.61;42.32;101055.59;4990660;28;20116;-67
2022/12/28 07:36:19;;;;;;;2.08;0.70;;;;;;;18.65;42.33;101063.13;4981536;28;20076;-70
2022/12/28 07:38:45;;;;;;;1.73;0.70;;;;;;;18.63;42.28;101056.31;4982120;28;20033;-67
2022/12/28 07:41:15;;;;;;;2.30;0.70;;;;;;;18.66;42.61;101070.09;4983236;28;20034;-68
2022/12/28 07:43:41;;;;;;;1.67;0.60;;;;;;;18.69;42.48;101055.78;4985083;28;20984;-68
2022/12/28 07:46:10;;;;;;;2.28;0.70;;;;;;;18.66;42.20;101041.06;4980482;28;20471;-67
2022/12/28 07:48:36;;;;;;;1.55;0.60;;;;;;;18.72;42.23;101057.38;4983722;28;20077;-67
2022/12/28 07:51:12;;;;;;;1.13;0.50;;;;;;;18.70;42.62;101057.50;4986789;28;20085;-67
2022/12/28 07:53:38;;;;;;;2.08;0.60;;;;;;;18.74;42.50;101069.50;4986103;28;20053;-67
2022/12/28 07:56:04;;;;;;;1.83;0.60;;;;;;;18.75;42.48;101057.94;4981726;28;20030;-67
2022/12/28 07:58:30;;;;;;;2.83;0.50;;;;;;;18.76;42.65;101061.44;4981612;28;20034;-69
2022/12/28 08:01:05;;;;;;;1.52;0.60;;;;;;;18.75;42.53;101065.03;4981799;28;20060;-67
2022/12/28 08:03:30;;;;;;;2.22;0.60;;;;;;;18.79;42.68;101074.41;4982616;28;20041;-67
2022/12/28 08:06:01;;;;;;;1.10;0.63;;;;;;;18.77;42.67;101060.47;4982111;28;20042;-68
2022/12/28 08:08:27;;;;;;;3.00;1.00;;;;;;;18.73;43.15;101059.06;4985270;28;20042;-67
2022/12/28 08:10:52;;;;;;;2.15;0.63;;;;;;;18.78;42.95;101062.16;5001520;28;20057;-68
2022/12/28 08:13:18;;;;;;;1.83;0.57;;;;;;;18.74;43.19;101055.44;5000044;28;20055;-68
2022/12/28 08:15:52;;;;;;;2.78;0.70;;;;;;;18.78;43.49;101067.44;4987095;28;20751;-70
2022/12/28 08:18:18;;;;;;;1.38;0.60;;;;;;;18.79;43.38;101067.31;4988198;28;20027;-66
2022/12/28 08:20:43;;;;;;;1.43;0.67;;;;;;;18.82;43.32;101072.34;4993101;28;20041;-67
2022/12/28 08:23:08;;;;;;;3.42;0.60;;;;;;;18.80;43.63;101058.44;4985110;28;20287;-69
2022/12/28 08:25:33;;;;;;;1.80;0.60;;;;;;;18.85;43.52;101061.56;5000260;28;20030;-68
2022/12/28 08:27:59;;;;;;;1.50;0.60;;;;;;;18.89;43.64;101058.69;5004779;28;20275;-68
2022/12/28 08:30:24;;;;;;;2.30;0.70;;;;;;;18.89;43.56;101058.69;4992932;28;20038;-69
2022/12/28 08:32:49;;;;;;;0.73;0.52;;;;;;;18.89;43.85;101054.22;4992459;28;20271;-68
2022/12/28 08:35:15;;;;;;;1.87;0.70;;;;;;;18.94;43.55;101067.06;4994351;28;20116;-68
2022/12/28 08:37:40;;;;;;;1.42;0.60;;;;;;;18.90;43.58;101050.63;5003664;28;20283;-71
2022/12/28 08:40:05;;;;;;;1.85;0.50;;;;;;;18.96;43.85;101065.13;4997286;28;20026;-68
2022/12/28 08:42:31;;;;;;;2.85;0.80;;;;;;;18.93;44.01;101057.47;4989596;28;20026;-67
2022/12/28 08:44:56;;;;;;;2.38;0.73;;;;;;;18.95;43.96;101056.38;4988037;28;20184;-70
2022/12/28 08:47:21;;;;;;;1.52;0.60;;;;;;;18.97;43.95;101058.91;4988767;28;20483;-68
2022/12/28 08:49:47;;;;;;;1.85;0.68;;;;;;;18.96;44.09;101055.44;4989272;28;20037;-66
2022/12/28 08:52:12;;;;;;;2.97;0.98;;;;;;;19.00;43.96;101069.22;4996841;28;20046;-68
2022/12/28 08:54:38;;;;;;;2.13;0.80;;;;;;;18.98;44.01;101056.13;4992675;28;20125;-67
2022/12/28 08:57:03;;;;;;;4.47;0.80;;;;;;;19.01;43.93;101060.34;5002304;28;20464;-67
2022/12/28 08:59:28;;;;;;;3.00;0.80;;;;;;;19.02;44.51;101052.25;4988706;28;20041;-68
2022/12/28 09:01:53;;;;;;;3.08;1.95;;;;;;;19.02;44.44;101052.25;4988465;28;20275;-67
2022/12/28 09:04:21;;;;;;;2.63;0.70;;;;;;;19.01;44.52;101057.69;4997097;28;20443;-67
2022/12/28 09:06:47;;;;;;;5.55;1.10;;;;;;;19.01;44.70;101061.16;4989100;28;20303;-67
2022/12/28 09:09:15;;;;;;;2.88;1.00;;;;;;;19.05;44.92;101059.09;4997018;28;20099;-68
2022/12/28 09:11:41;;;;;;;4.78;1.40;;;;;;;19.09;45.54;101060.53;5004206;28;20550;-67
2022/12/28 09:14:09;;;;;;;4.30;1.35;;;;;;;19.14;45.68;101062.81;4999055;28;20398;-68
2022/12/28 09:16:36;;;;;;;3.25;0.98;;;;;;;19.19;45.63;101064.09;4988159;28;20030;-67
2022/12/28 09:19:03;;;;;;;3.45;1.10;;;;;;;19.25;45.67;101062.75;5000321;28;20133;-68
2022/12/28 09:21:32;;;;;;;5.55;1.30;;;;;;;19.23;45.71;101059.38;4988992;28;20042;-70
2022/12/28 09:23:57;;;;;;;3.65;0.90;;;;;;;19.26;45.55;101058.31;5003054;28;20066;-68
2022/12/28 09:26:27;;;;;;;4.22;1.25;;;;;;;19.28;45.65;101069.56;4987167;28;20069;-69
2022/12/28 09:28:56;;;;;;;5.75;1.25;;;;;;;19.24;45.36;101058.44;4988505;28;20040;-72
2022/12/28 09:31:24;;;;;;;5.40;1.00;;;;;;;19.27;45.21;101063.47;4987165;28;20038;-64
2022/12/28 09:34:01;;;;;;;5.13;1.00;;;;;;;19.26;45.21;101055.66;4999565;28;20030;-66
2022/12/28 09:36:46;;;;;;;4.05;1.20;;;;;;;19.25;45.09;101057.47;4992355;28;21200;-65
2022/12/28 09:39:17;;;;;;;4.10;0.95;;;;;;;19.23;45.01;101056.75;4984688;28;20049;-74
2022/12/28 09:41:47;;;;;;;3.33;1.13;;;;;;;19.26;45.47;101060.94;4995930;28;20493;-69
2022/12/28 09:44:15;;;;;;;3.75;0.90;;;;;;;19.28;45.37;101064.28;4994273;28;20509;-70
2022/12/28 09:47:04;;;;;;;3.85;1.00;;;;;;;19.28;45.43;101062.50;4993828;28;20624;-71
2022/12/28 09:49:42;;;;;;;3.78;1.00;;;;;;;19.28;45.37;101061.66;4985315;28;20077;-69
2022/12/28 09:52:14;;;;;;;3.35;0.88;;;;;;;19.29;45.52;101058.06;4993822;28;20038;-72
2022/12/28 09:54:40;;;;;;;4.15;1.10;;;;;;;19.30;45.52;101057.94;4990322;28;20042;-70
2022/12/28 09:57:17;;;;;;;3.85;1.00;;;;;;;19.29;45.54;101050.13;4999836;28;20054;-73
2022/12/28 09:59:44;;;;;;;2.83;0.77;;;;;;;19.35;45.57;101057.53;4999195;28;20501;-72
2022/12/28 10:02:30;;;;;;;4.07;1.00;;;;;;;19.30;45.49;101051.81;4999293;28;20046;-69
2022/12/28 10:04:55;;;;;;;4.13;1.10;;;;;;;19.32;45.78;101053.34;4993947;28;20034;-69
2022/12/28 10:07:21;;;;;;;2.10;0.80;;;;;;;19.37;45.76;101056.44;4990605;28;20045;-70
2022/12/28 10:09:46;;;;;;;4.68;0.88;;;;;;;19.48;45.42;101055.53;4997216;28;20140;-69
2022/12/28 10:12:19;;;;;;;2.17;0.60;;;;;;;19.54;45.22;101055.03;5003160;28;20037;-72
2022/12/28 10:14:46;;;;;;;3.22;0.80;;;;;;;19.58;45.21;101042.38;5003237;28;20034;-67
2022/12/28 10:17:13;;;;;;;4.75;1.00;;;;;;;19.64;44.92;101051.63;4989423;28;20030;-71
2022/12/28 10:19:38;;;;;;;2.90;0.90;;;;;;;19.64;44.99;101038.41;4983211;28;20041;-73
2022/12/28 10:22:07;;;;;;;2.45;0.80;;;;;;;19.68;45.28;101034.53;4986934;28;20026;-70
2022/12/28 10:24:33;;;;;;;2.17;0.80;;;;;;;19.68;45.00;101035.38;5002860;28;20034;-69
2022/12/28 10:27:02;;;;;;;2.10;0.70;;;;;;;19.65;44.72;101033.00;4995339;28;20438;-66
2022/12/28 10:29:30;;;;;;;6.28;1.45;;;;;;;19.58;44.89;101026.53;5000361;28;20042;-65
2022/12/28 10:32:11;;;;;;;3.55;0.70;;;;;;;19.54;45.10;101027.78;4993068;28;20040;-68
2022/12/28 10:34:52;;;;;;;2.83;1.08;;;;;;;19.56;44.84;101028.47;4987513;28;20065;-71
2022/12/28 10:37:18;;;;;;;3.80;0.80;;;;;;;19.47;44.98;101021.31;4992055;28;20034;-74
2022/12/28 10:39:56;;;;;;;3.35;0.70;;;;;;;19.51;45.07;101030.69;4994403;28;20038;-69
2022/12/28 10:42:27;;;;;;;2.63;1.15;;;;;;;19.44;45.30;101025.06;4984552;28;20034;-71
2022/12/28 10:45:03;;;;;;;3.50;0.82;;;;;;;19.42;45.66;101029.63;4992213;28;20135;-68
2022/12/28 10:47:39;;;;;;;2.70;0.80;;;;;;;19.41;45.46;101022.69;4983756;28;20065;-66
2022/12/28 10:50:05;;;;;;;3.17;1.02;;;;;;;19.38;45.54;101018.47;4984541;28;20035;-68
2022/12/28 10:52:31;;;;;;;5.50;0.70;;;;;;;19.42;45.31;101020.88;4987639;28;20089;-71
2022/12/28 10:54:56;;;;;;;3.28;0.60;;;;;;;19.39;45.21;101025.44;4995872;28;20034;-69
2022/12/28 10:57:24;;;;;;;2.50;0.80;;;;;;;19.39;45.52;101025.44;4982657;28;20537;-70
2022/12/28 10:59:50;;;;;;;2.60;0.90;;;;;;;19.36;45.73;101009.84;4981848;28;20291;-72
2022/12/28 11:02:29;;;;;;;2.67;0.75;;;;;;;19.37;45.73;101015.97;4982165;28;20031;-71
2022/12/28 11:05:00;;;;;;;3.00;0.70;;;;;;;19.31;45.91;101001.47;4988369;28;20714;-72
2022/12/28 11:07:37;;;;;;;2.25;0.75;;;;;;;19.36;45.68;101022.25;4985320;28;20038;-76
2022/12/28 11:10:23;;;;;;;2.80;0.85;;;;;;;19.36;45.55;101015.13;4993347;28;20043;-72
2022/12/28 11:12:50;;;;;;;2.72;0.80;;;;;;;19.35;45.68;101008.16;4987371;28;20048;-74
2022/12/28 11:15:19;;;;;;;1.67;0.65;;;;;;;19.30;45.78;101004.25;4985993;28;20033;-71
2022/12/28 11:17:51;;;;;;;2.72;0.85;;;;;;;19.28;45.60;101000.88;4998239;28;20096;-74
2022/12/28 11:20:19;;;;;;;1.95;0.75;;;;;;;19.36;45.73;100993.16;4992305;28;20502;-69
2022/12/28 11:22:46;;;;;;;2.30;0.73;;;;;;;19.34;45.68;100990.66;4999104;28;20088;-70
2022/12/28 11:25:20;;;;;;;2.67;0.70;;;;;;;19.31;45.62;100993.56;4993811;28;20084;-68
2022/12/28 11:27:47;;;;;;;1.95;0.60;;;;;;;19.32;45.65;100995.22;4999847;28;20034;-69
2022/12/28 11:30:17;;;;;;;2.13;0.70;;;;;;;19.31;45.75;100977.69;5000447;28;20065;-68
2022/12/28 11:33:03;;;;;;;1.98;0.70;;;;;;;19.36;45.60;100982.59;4999230;28;20030;-70
2022/12/28 11:35:32;;;;;;;2.60;0.60;;;;;;;19.33;45.47;100970.47;4983426;28;20054;-70
2022/12/28 11:38:03;;;;;;;3.90;0.70;;;;;;;19.35;45.34;100965.06;4980790;28;20046;-69
2022/12/28 11:40:44;;;;;;;2.58;0.88;;;;;;;19.35;45.26;100965.06;4982329;28;20050;-69
2022/12/28 11:43:28;;;;;;;2.10;0.75;;;;;;;19.32;45.36;100960.84;4982020;28;20383;-70
2022/12/28 11:46:01;;;;;;;3.53;1.20;;;;;;;19.30;45.35;100957.50;4987201;28;20045;-69
2022/12/28 11:48:41;;;;;;;4.03;1.77;;;;;;;19.30;45.52;100957.50;4996067;28;20042;-72
2022/12/28 11:51:20;;;;;;;7.70;2.70;;;;;;;19.28;45.76;100961.25;4991674;28;20043;-69
2022/12/28 11:53:45;;;;;;;6.25;2.65;;;;;;;19.24;45.78;100954.56;4985001;28;20034;-69
2022/12/28 11:56:12;;;;;;;6.13;2.70;;;;;;;19.27;45.89;100949.84;4994599;28;20034;-72